createdAt,value
2017-09-08T00:01:50.983Z,17.90
2017-09-08T00:04:18.443Z,17.90
2017-09-08T00:06:45.902Z,17.90
2017-09-08T00:09:14.250Z,17.90
2017-09-08T00:11:41.720Z,17.80
2017-09-08T00:14:09.154Z,17.90
2017-09-08T00:16:36.625Z,17.90
2017-09-08T00:19:04.105Z,17.80
2017-09-08T00:21:31.570Z,17.80
2017-09-08T00:23:59.030Z,17.80
2017-09-08T00:26:26.502Z,17.80
2017-09-08T00:28:53.944Z,17.80
2017-09-08T00:31:21.384Z,17.70
2017-09-08T00:33:48.845Z,17.70
2017-09-08T00:36:16.277Z,17.70
2017-09-08T00:38:45.358Z,17.70
2017-09-08T00:41:12.794Z,17.80
2017-09-08T00:43:40.246Z,17.80
2017-09-08T00:46:07.689Z,17.80
2017-09-08T00:48:35.129Z,17.80
2017-09-08T00:51:02.591Z,17.70
2017-09-08T00:53:30.081Z,17.70
2017-09-08T00:55:57.536Z,17.70
2017-09-08T00:58:24.982Z,17.70
2017-09-08T01:00:52.413Z,17.70
2017-09-08T01:03:19.886Z,17.70
2017-09-08T01:05:48.249Z,17.70
2017-09-08T01:08:17.032Z,17.70
2017-09-08T01:10:45.409Z,21.60
2017-09-08T01:13:12.873Z,17.60
2017-09-08T01:15:40.329Z,17.50
2017-09-08T01:18:07.786Z,17.50
2017-09-08T01:20:35.236Z,17.40
2017-09-08T01:23:02.714Z,17.40
2017-09-08T01:25:30.381Z,17.30
2017-09-08T01:27:57.836Z,17.20
2017-09-08T01:30:25.297Z,17.10
2017-09-08T01:32:52.740Z,17.10
2017-09-08T01:35:20.237Z,17.00
2017-09-08T01:37:47.682Z,17.00
2017-09-08T01:40:15.363Z,16.90
2017-09-08T01:42:42.794Z,16.80
2017-09-08T01:45:10.665Z,16.80
2017-09-08T01:47:38.101Z,16.80
2017-09-08T01:50:05.549Z,16.70
2017-09-08T01:52:33.017Z,16.70
2017-09-08T01:55:00.458Z,16.70
2017-09-08T01:57:27.908Z,16.70
2017-09-08T01:59:55.346Z,16.60
2017-09-08T02:02:22.809Z,16.60
2017-09-08T02:04:50.249Z,16.60
2017-09-08T02:07:18.141Z,16.60
2017-09-08T02:09:45.592Z,16.60
2017-09-08T02:12:13.305Z,16.50
2017-09-08T02:14:41.069Z,16.50
2017-09-08T02:17:08.547Z,16.60
2017-09-08T02:19:36.009Z,16.60
2017-09-08T02:22:09.169Z,16.50
2017-09-08T02:24:36.620Z,16.50
2017-09-08T02:27:04.193Z,16.50
2017-09-08T02:29:31.846Z,16.50
2017-09-08T02:31:59.271Z,16.50
2017-09-08T02:34:27.501Z,16.50
2017-09-08T02:36:54.951Z,16.50
2017-09-08T02:39:22.381Z,16.50
2017-09-08T02:41:51.105Z,16.50
2017-09-08T02:44:21.013Z,16.40
2017-09-08T02:46:51.029Z,16.40
2017-09-08T02:49:19.624Z,16.40
2017-09-08T02:51:47.079Z,16.40
2017-09-08T02:54:14.505Z,16.40
2017-09-08T02:56:41.957Z,16.40
2017-09-08T02:59:09.418Z,16.40
2017-09-08T03:01:36.885Z,16.40
2017-09-08T03:04:04.310Z,16.40
2017-09-08T03:06:31.776Z,16.40
2017-09-08T03:08:59.209Z,16.40
2017-09-08T03:11:26.680Z,16.30
2017-09-08T03:13:54.138Z,16.40
2017-09-08T03:16:22.860Z,16.40
2017-09-08T03:18:52.149Z,16.40
2017-09-08T03:21:20.577Z,16.40
2017-09-08T03:23:48.029Z,16.40
2017-09-08T03:26:15.484Z,16.50
2017-09-08T03:28:42.948Z,16.50
2017-09-08T03:31:10.405Z,16.50
2017-09-08T03:33:37.868Z,16.50
2017-09-08T03:36:05.292Z,16.50
2017-09-08T03:38:32.765Z,16.50
2017-09-08T03:41:00.516Z,16.50
2017-09-08T03:43:27.954Z,17.00
2017-09-08T03:45:55.417Z,16.50
2017-09-08T03:48:22.848Z,16.50
2017-09-08T03:50:50.612Z,16.50
2017-09-08T03:53:18.073Z,16.50
2017-09-08T03:55:45.525Z,16.50
2017-09-08T03:58:12.985Z,16.50
2017-09-08T04:00:40.505Z,16.50
2017-09-08T04:03:07.966Z,16.40
2017-09-08T04:05:35.397Z,16.50
2017-09-08T04:08:02.849Z,16.30
2017-09-08T04:10:30.345Z,16.30
2017-09-08T04:12:57.903Z,16.30
2017-09-08T04:15:25.445Z,16.20
2017-09-08T04:17:54.246Z,16.20
2017-09-08T04:20:23.486Z,16.20
2017-09-08T04:22:51.736Z,16.20
2017-09-08T04:25:19.205Z,16.20
2017-09-08T04:27:46.668Z,16.20
2017-09-08T04:30:14.914Z,16.10
2017-09-08T04:32:42.344Z,16.10
2017-09-08T04:35:09.821Z,16.10
2017-09-08T04:37:37.272Z,16.10
2017-09-08T04:40:04.750Z,16.20
2017-09-08T04:42:32.192Z,16.20
2017-09-08T04:44:59.673Z,16.20
2017-09-08T04:47:27.125Z,16.30
2017-09-08T04:49:54.697Z,16.30
2017-09-08T04:52:33.452Z,16.20
2017-09-08T05:07:55.913Z,15.80
2017-09-08T05:10:25.219Z,15.80
2017-09-08T05:13:04.291Z,15.80
2017-09-08T05:18:54.886Z,15.70
2017-09-08T05:21:22.339Z,15.70
2017-09-08T05:23:49.801Z,15.70
2017-09-08T05:26:17.245Z,15.70
2017-09-08T05:28:44.703Z,15.80
2017-09-08T05:31:12.165Z,15.80
2017-09-08T05:33:39.600Z,15.80
2017-09-08T05:36:07.068Z,15.90
2017-09-08T05:38:34.517Z,15.90
2017-09-08T05:41:02.332Z,15.90
2017-09-08T05:43:29.785Z,16.00
2017-09-08T05:45:57.280Z,16.00
2017-09-08T05:48:24.721Z,16.00
2017-09-08T05:50:52.170Z,16.00
2017-09-08T05:53:19.624Z,16.00
2017-09-08T05:55:47.085Z,16.00
2017-09-08T05:58:14.559Z,16.00
2017-09-08T06:00:41.992Z,16.10
2017-09-08T06:03:09.458Z,16.10
2017-09-08T06:05:36.905Z,16.20
2017-09-08T06:08:04.357Z,16.10
2017-09-08T06:10:31.856Z,16.10
2017-09-08T06:12:59.282Z,16.10
2017-09-08T06:15:27.668Z,16.20
2017-09-08T06:17:56.025Z,16.10
2017-09-08T06:20:23.487Z,16.20
2017-09-08T06:22:50.933Z,16.20
2017-09-08T06:25:18.402Z,16.30
2017-09-08T06:27:45.870Z,16.40
2017-09-08T06:30:13.328Z,16.40
2017-09-08T06:32:40.784Z,16.50
2017-09-08T06:35:08.220Z,16.50
2017-09-08T06:37:35.664Z,16.50
2017-09-08T06:40:03.134Z,16.50
2017-09-08T06:42:30.576Z,16.50
2017-09-08T06:44:58.089Z,16.50
2017-09-08T06:47:25.769Z,16.50
2017-09-08T06:49:54.000Z,16.50
2017-09-08T06:52:21.442Z,16.50
2017-09-08T06:54:48.904Z,16.50
2017-09-08T06:57:16.775Z,16.50
2017-09-08T06:59:44.212Z,16.60
2017-09-08T07:02:11.645Z,16.60
2017-09-08T07:04:39.861Z,16.70
2017-09-08T07:07:07.322Z,16.70
2017-09-08T07:09:34.767Z,16.70
2017-09-08T07:12:02.215Z,16.70
2017-09-08T07:14:29.655Z,16.80
2017-09-08T07:16:57.115Z,16.80
2017-09-08T07:19:24.556Z,16.90
2017-09-08T07:21:52.028Z,16.90
2017-09-08T07:24:19.475Z,16.90
2017-09-08T07:26:46.939Z,17.00
2017-09-08T07:29:14.486Z,17.00
2017-09-08T07:31:41.916Z,17.00
2017-09-08T07:34:09.377Z,17.00
2017-09-08T07:36:36.816Z,17.00
2017-09-08T07:39:04.302Z,17.00
2017-09-08T07:41:31.746Z,17.10
2017-09-08T07:44:00.725Z,17.10
2017-09-08T07:46:28.161Z,17.20
2017-09-08T07:48:55.609Z,17.20
2017-09-08T07:51:23.062Z,17.30
2017-09-08T07:53:50.523Z,17.40
2017-09-08T07:56:17.988Z,17.40
2017-09-08T07:58:45.428Z,17.50
2017-09-08T08:01:12.889Z,17.60
2017-09-08T08:03:41.089Z,17.80
2017-09-08T08:06:08.555Z,17.80
2017-09-08T08:08:35.993Z,17.80
2017-09-08T08:11:03.843Z,17.80
2017-09-08T08:13:31.925Z,17.90
2017-09-08T08:16:01.069Z,17.90
2017-09-08T08:18:28.525Z,17.90
2017-09-08T08:20:56.180Z,18.00
2017-09-08T08:23:23.763Z,18.10
2017-09-08T08:25:51.201Z,18.10
2017-09-08T08:28:18.651Z,18.20
2017-09-08T08:30:46.101Z,18.30
2017-09-08T08:33:13.544Z,18.40
2017-09-08T08:35:40.981Z,18.40
2017-09-08T08:38:08.450Z,18.40
2017-09-08T08:40:35.872Z,18.50
2017-09-08T08:43:03.333Z,18.60
2017-09-08T08:45:30.770Z,18.70
2017-09-08T08:47:58.599Z,18.70
2017-09-08T08:50:26.041Z,18.80
2017-09-08T08:52:53.572Z,18.80
2017-09-08T08:55:21.045Z,19.00
2017-09-08T08:57:48.513Z,19.10
2017-09-08T09:00:15.961Z,19.10
2017-09-08T09:02:43.401Z,19.30
2017-09-08T09:05:10.859Z,19.30
2017-09-08T09:07:38.338Z,19.40
2017-09-08T09:10:05.784Z,19.40
2017-09-08T09:12:34.466Z,19.50
2017-09-08T09:15:01.911Z,19.50
2017-09-08T09:17:29.353Z,19.60
2017-09-08T09:19:56.839Z,19.60
2017-09-08T09:22:24.293Z,19.70
2017-09-08T09:24:51.755Z,19.80
2017-09-08T09:27:19.235Z,19.90
2017-09-08T09:29:46.668Z,19.90
2017-09-08T09:32:14.318Z,20.00
2017-09-08T09:34:41.739Z,20.00
2017-09-08T09:37:09.350Z,20.10
2017-09-08T09:39:36.792Z,20.10
2017-09-08T09:42:05.793Z,20.00
2017-09-08T09:44:33.295Z,20.00
2017-09-08T09:47:00.896Z,20.10
2017-09-08T09:49:28.331Z,20.20
2017-09-08T09:51:55.773Z,20.30
2017-09-08T09:54:23.982Z,20.50
2017-09-08T09:56:51.452Z,20.50
2017-09-08T09:59:19.109Z,20.60
2017-09-08T10:01:46.641Z,20.60
2017-09-08T10:04:14.097Z,20.60
2017-09-08T10:06:41.553Z,20.60
2017-09-08T10:09:09.033Z,20.60
2017-09-08T10:11:37.763Z,20.60
2017-09-08T10:14:05.234Z,20.50
2017-09-08T10:16:32.692Z,20.60
2017-09-08T10:19:01.530Z,20.50
2017-09-08T10:21:29.112Z,20.50
2017-09-08T10:23:56.556Z,20.40
2017-09-08T10:26:24.014Z,20.40
2017-09-08T10:28:51.450Z,20.30
2017-09-08T10:31:18.939Z,20.20
2017-09-08T10:33:46.420Z,20.20
2017-09-08T10:36:13.900Z,20.30
2017-09-08T10:38:41.355Z,20.20
2017-09-08T10:41:09.784Z,20.10
2017-09-08T10:43:37.216Z,20.00
2017-09-08T10:46:04.662Z,20.00
2017-09-08T10:48:32.412Z,20.00
2017-09-08T10:50:59.854Z,19.90
2017-09-08T10:53:27.331Z,19.80
2017-09-08T10:55:55.090Z,19.90
2017-09-08T10:58:22.555Z,19.90
2017-09-08T11:00:49.998Z,19.90
2017-09-08T11:03:17.489Z,20.00
2017-09-08T11:05:44.943Z,20.20
2017-09-08T11:08:12.369Z,20.30
2017-09-08T11:10:39.843Z,20.20
2017-09-08T11:13:18.637Z,20.40
2017-09-08T11:25:26.084Z,20.60
2017-09-08T11:27:53.516Z,20.70
2017-09-08T11:30:21.095Z,20.70
2017-09-08T11:32:54.340Z,20.80
2017-09-08T11:35:27.334Z,20.90
2017-09-08T11:37:54.771Z,21.00
2017-09-08T11:40:22.242Z,21.10
2017-09-08T11:42:49.680Z,21.20
2017-09-08T11:45:17.129Z,21.30
2017-09-08T11:47:44.853Z,21.30
2017-09-08T11:50:12.292Z,21.30
2017-09-08T11:52:40.078Z,21.40
2017-09-08T11:55:07.576Z,21.40
2017-09-08T11:59:12.719Z,21.40
2017-09-08T12:01:40.272Z,21.40
2017-09-08T12:04:07.721Z,21.40
2017-09-08T12:06:35.165Z,21.40
2017-09-08T12:09:02.865Z,21.30
2017-09-08T12:11:30.337Z,21.30
2017-09-08T12:13:57.770Z,21.40
2017-09-08T12:16:25.262Z,21.40
2017-09-08T12:18:52.696Z,21.40
2017-09-08T12:21:20.166Z,21.40
2017-09-08T12:23:47.630Z,21.40
2017-09-08T12:26:15.100Z,21.20
2017-09-08T12:28:42.554Z,21.20
2017-09-08T12:31:10.000Z,21.10
2017-09-08T12:33:37.461Z,21.10
2017-09-08T12:36:04.941Z,21.10
2017-09-08T12:38:32.424Z,21.10
2017-09-08T12:41:00.005Z,21.00
2017-09-08T12:43:27.464Z,21.10
2017-09-08T12:45:54.940Z,21.00
2017-09-08T12:48:22.642Z,20.90
2017-09-08T12:50:50.285Z,20.90
2017-09-08T12:53:17.718Z,20.90
2017-09-08T12:55:45.181Z,20.90
2017-09-08T12:58:12.961Z,20.90
2017-09-08T13:00:40.425Z,20.90
2017-09-08T13:03:07.855Z,20.90
2017-09-08T13:05:35.309Z,20.80
2017-09-08T13:08:02.765Z,20.70
2017-09-08T13:10:30.205Z,20.70
2017-09-08T13:12:57.721Z,20.60
2017-09-08T13:15:25.632Z,20.60
2017-09-08T13:17:53.048Z,20.60
2017-09-08T13:20:21.329Z,20.60
2017-09-08T13:22:48.789Z,20.60
2017-09-08T13:25:16.241Z,20.60
2017-09-08T13:27:44.743Z,20.60
2017-09-08T13:30:12.953Z,20.70
2017-09-08T13:32:41.070Z,20.70
2017-09-08T13:35:08.545Z,20.70
2017-09-08T13:37:36.009Z,20.80
2017-09-08T13:40:03.496Z,20.80
2017-09-08T13:42:30.942Z,20.80
2017-09-08T13:44:58.395Z,20.80
2017-09-08T13:47:25.841Z,20.80
2017-09-08T13:49:53.285Z,20.70
2017-09-08T13:52:20.749Z,20.80
2017-09-08T13:54:48.634Z,20.80
2017-09-08T13:57:16.884Z,20.80
2017-09-08T13:59:45.167Z,20.80
2017-09-08T14:02:12.605Z,20.80
2017-09-08T14:04:40.061Z,20.80
2017-09-08T14:07:07.540Z,20.80
2017-09-08T14:09:34.993Z,20.80
2017-09-08T14:12:02.505Z,20.80
2017-09-08T14:14:30.078Z,20.90
2017-09-08T14:16:57.514Z,20.80
2017-09-08T14:19:25.074Z,20.80
2017-09-08T14:21:52.516Z,20.70
2017-09-08T14:24:20.130Z,20.70
2017-09-08T14:26:48.498Z,20.70
2017-09-08T14:29:15.959Z,20.60
2017-09-08T14:31:44.389Z,20.60
2017-09-08T14:34:13.325Z,20.50
2017-09-08T14:36:40.778Z,20.50
2017-09-08T14:39:08.218Z,20.50
2017-09-08T14:41:35.879Z,20.40
2017-09-08T14:44:03.335Z,20.40
2017-09-08T14:46:30.784Z,20.40
2017-09-08T14:48:58.257Z,20.40
2017-09-08T14:51:25.689Z,20.40
2017-09-08T14:53:53.153Z,20.30
2017-09-08T14:56:20.646Z,20.30
2017-09-08T14:58:49.401Z,20.30
2017-09-08T15:01:16.881Z,20.30
2017-09-08T15:03:44.348Z,20.20
2017-09-08T15:06:11.829Z,20.20
2017-09-08T15:08:39.305Z,20.20
2017-09-08T15:11:06.761Z,20.40
2017-09-08T15:13:34.732Z,20.60
2017-09-08T15:16:02.192Z,20.60
2017-09-08T15:18:29.773Z,20.50
2017-09-08T15:20:58.037Z,20.40
2017-09-08T15:23:25.517Z,20.40
2017-09-08T15:25:53.176Z,20.30
2017-09-08T15:28:21.397Z,20.20
2017-09-08T15:30:49.416Z,20.20
2017-09-08T15:33:16.849Z,20.20
2017-09-08T15:35:44.341Z,20.20
2017-09-08T15:38:11.803Z,20.20
2017-09-08T15:40:39.281Z,20.10
2017-09-08T15:43:06.712Z,20.10
2017-09-08T15:45:34.151Z,20.10
2017-09-08T15:48:01.652Z,20.10
2017-09-08T15:50:29.184Z,20.10
2017-09-08T15:52:56.644Z,20.10
2017-09-08T15:55:24.135Z,20.10
2017-09-08T15:57:51.611Z,20.10
2017-09-08T16:00:19.089Z,20.10
2017-09-08T16:02:47.340Z,20.10
2017-09-08T16:05:14.790Z,20.00
2017-09-08T16:07:42.269Z,20.10
2017-09-08T16:10:09.804Z,20.00
2017-09-08T16:12:38.195Z,20.00
2017-09-08T16:15:05.643Z,20.00
2017-09-08T16:17:33.095Z,20.00
2017-09-08T16:20:00.555Z,20.00
2017-09-08T16:22:28.011Z,20.00
2017-09-08T16:24:55.474Z,20.00
2017-09-08T16:27:22.903Z,20.00
2017-09-08T16:29:50.383Z,20.00
2017-09-08T16:32:17.844Z,20.00
2017-09-08T16:34:45.311Z,20.00
2017-09-08T16:37:12.778Z,20.00
2017-09-08T16:39:41.019Z,20.00
2017-09-08T16:42:08.603Z,20.00
2017-09-08T16:44:36.080Z,20.00
2017-09-08T16:47:03.525Z,20.00
2017-09-08T16:49:30.957Z,19.90
2017-09-08T16:51:58.456Z,20.00
2017-09-08T16:54:25.882Z,20.00
2017-09-08T16:56:53.338Z,20.00
2017-09-08T16:59:20.798Z,19.90
2017-09-08T17:01:48.293Z,19.90
2017-09-08T17:04:16.529Z,19.90
2017-09-08T17:06:44.070Z,19.90
2017-09-08T17:09:12.388Z,19.90
2017-09-08T17:11:41.531Z,19.90
2017-09-08T17:14:09.798Z,19.80
2017-09-08T17:16:37.241Z,19.80
2017-09-08T17:19:04.724Z,19.80
2017-09-08T17:21:32.199Z,19.80
2017-09-08T17:23:59.654Z,19.80
2017-09-08T17:26:27.124Z,19.80
2017-09-08T17:28:54.598Z,19.80
2017-09-08T17:31:22.316Z,19.80
2017-09-08T17:33:49.779Z,19.80
2017-09-08T17:36:17.212Z,19.80
2017-09-08T17:38:44.715Z,19.70
2017-09-08T17:41:12.340Z,19.70
2017-09-08T17:43:40.600Z,19.60
2017-09-08T17:46:08.094Z,19.60
2017-09-08T17:48:35.530Z,19.50
2017-09-08T17:51:02.981Z,19.50
2017-09-08T17:53:30.425Z,19.40
2017-09-08T17:55:57.877Z,19.30
2017-09-08T17:58:25.341Z,19.30
2017-09-08T18:00:52.796Z,19.20
2017-09-08T18:03:20.270Z,19.20
2017-09-08T18:05:47.745Z,19.20
2017-09-08T18:08:15.185Z,19.10
2017-09-08T18:10:42.656Z,19.10
2017-09-08T18:13:10.111Z,19.10
2017-09-08T18:15:37.617Z,19.00
2017-09-08T18:18:05.216Z,19.00
2017-09-08T18:20:32.705Z,19.00
2017-09-08T18:23:00.305Z,18.90
2017-09-08T18:25:27.750Z,18.90
2017-09-08T18:27:55.224Z,18.90
2017-09-08T18:30:22.821Z,18.90
2017-09-08T18:32:50.275Z,18.80
2017-09-08T18:35:17.757Z,18.80
2017-09-08T18:37:46.151Z,18.80
2017-09-08T18:40:13.602Z,18.80
2017-09-08T18:42:41.076Z,18.70
2017-09-08T18:45:08.580Z,18.70
2017-09-08T18:47:36.024Z,18.70
2017-09-08T18:50:03.470Z,18.70
2017-09-08T18:52:30.958Z,18.70
2017-09-08T18:54:58.430Z,18.70
2017-09-08T18:57:26.094Z,18.70
2017-09-08T18:59:53.718Z,18.70
2017-09-08T19:02:21.170Z,18.70
2017-09-08T19:04:49.963Z,18.60
2017-09-08T19:07:17.480Z,18.60
2017-09-08T19:09:44.961Z,18.70
2017-09-08T19:12:12.405Z,18.70
2017-09-08T19:14:39.883Z,18.70
2017-09-08T19:17:07.352Z,18.60
2017-09-08T19:19:34.802Z,18.60
2017-09-08T19:22:02.278Z,18.60
2017-09-08T19:24:29.736Z,18.60
2017-09-08T19:26:57.179Z,18.60
2017-09-08T19:29:24.627Z,18.60
2017-09-08T19:31:52.105Z,18.60
2017-09-08T19:34:19.821Z,18.60
2017-09-08T19:36:48.194Z,18.60
2017-09-08T19:39:15.666Z,18.60
2017-09-08T19:41:43.140Z,18.60
2017-09-08T19:44:10.717Z,18.60
2017-09-08T19:46:38.133Z,18.50
2017-09-08T19:49:06.417Z,18.50
2017-09-08T19:51:33.866Z,18.50
2017-09-08T19:54:01.341Z,18.50
2017-09-08T19:56:28.798Z,18.50
2017-09-08T19:58:56.230Z,18.40
2017-09-08T20:01:23.706Z,18.40
2017-09-08T20:03:51.143Z,18.40
2017-09-08T20:06:18.962Z,18.40
2017-09-08T20:08:46.400Z,18.40
2017-09-08T20:11:14.121Z,18.50
2017-09-08T20:13:41.564Z,18.50
2017-09-08T20:16:09.362Z,18.50
2017-09-08T20:18:36.799Z,18.50
2017-09-08T20:21:04.249Z,18.50
2017-09-08T20:23:31.715Z,18.50
2017-09-08T20:25:59.148Z,18.50
2017-09-08T20:28:26.654Z,18.50
2017-09-08T20:30:54.099Z,18.50
2017-09-08T20:33:21.854Z,18.50
2017-09-08T20:35:49.853Z,18.50
2017-09-08T20:38:19.104Z,18.50
2017-09-08T20:40:46.925Z,18.50
2017-09-08T20:43:15.135Z,18.50
2017-09-08T20:45:42.770Z,18.50
2017-09-08T20:48:10.311Z,18.50
2017-09-08T20:50:37.924Z,18.50
2017-09-08T20:53:05.371Z,18.50
2017-09-08T20:55:32.818Z,18.50
2017-09-08T20:58:00.332Z,18.50
2017-09-08T21:00:27.918Z,18.50
2017-09-08T21:02:55.653Z,18.50
2017-09-08T21:05:23.094Z,18.50
2017-09-08T21:07:51.732Z,18.50
2017-09-08T21:10:20.355Z,18.50
2017-09-08T21:22:27.815Z,18.50
2017-09-08T21:24:55.271Z,18.10
2017-09-08T21:27:23.651Z,18.10
2017-09-08T21:29:52.461Z,18.10
2017-09-08T21:32:20.710Z,18.10
2017-09-08T21:34:48.151Z,18.20
2017-09-08T21:37:15.615Z,18.20
2017-09-08T21:39:43.214Z,18.20
2017-09-08T21:42:10.882Z,18.30
2017-09-08T21:44:38.380Z,18.30
2017-09-08T21:47:05.920Z,18.30
2017-09-08T21:49:33.360Z,18.30
2017-09-08T21:52:00.810Z,18.30
2017-09-08T21:54:28.313Z,18.30
2017-09-08T21:56:55.746Z,18.30
2017-09-08T21:59:23.192Z,18.30
2017-09-08T22:01:51.406Z,18.30
2017-09-08T22:04:19.628Z,18.40
2017-09-08T22:06:47.275Z,18.30
2017-09-08T22:09:14.726Z,18.40
2017-09-08T22:11:42.338Z,18.30
2017-09-08T22:14:09.764Z,18.40
2017-09-08T22:16:37.566Z,18.40
2017-09-08T22:19:05.009Z,18.40
2017-09-08T22:21:32.447Z,18.40
2017-09-08T22:23:59.921Z,18.40
2017-09-08T22:26:27.354Z,18.40
2017-09-08T22:28:55.709Z,18.40
2017-09-08T22:31:23.229Z,18.40
2017-09-08T22:33:50.679Z,18.40
2017-09-08T22:36:18.125Z,18.40
2017-09-08T22:38:45.573Z,18.40
2017-09-08T22:41:13.057Z,18.40
2017-09-08T22:43:40.500Z,18.40
2017-09-08T22:46:07.991Z,18.40
2017-09-08T22:48:35.434Z,18.40
2017-09-08T22:51:02.873Z,18.40
2017-09-08T22:53:30.324Z,18.40
2017-09-08T22:55:57.762Z,18.40
2017-09-08T22:58:26.173Z,18.40
2017-09-08T23:00:54.295Z,18.40
2017-09-08T23:03:21.851Z,18.40
2017-09-08T23:05:50.078Z,18.40
2017-09-08T23:08:17.547Z,18.40
2017-09-08T23:10:45.298Z,18.40
2017-09-08T23:13:12.788Z,18.40
2017-09-08T23:15:40.528Z,18.40
2017-09-08T23:18:08.006Z,18.40
2017-09-08T23:20:35.461Z,18.40
2017-09-08T23:23:02.899Z,18.40
2017-09-08T23:25:30.365Z,18.40
2017-09-08T23:27:57.817Z,18.40
2017-09-08T23:30:25.286Z,18.40
2017-09-08T23:32:52.741Z,18.40
2017-09-08T23:35:20.185Z,18.40
2017-09-08T23:37:47.959Z,18.40
2017-09-08T23:40:15.412Z,18.40
2017-09-08T23:42:42.882Z,18.40
2017-09-08T23:45:10.513Z,18.40
2017-09-08T23:47:37.998Z,18.40
2017-09-08T23:50:05.649Z,18.40
2017-09-08T23:52:33.100Z,18.40
2017-09-08T23:55:00.694Z,18.40
2017-09-08T23:57:28.909Z,18.40
2017-09-08T23:59:57.103Z,18.40
